TimeCST,TemperatureF,Dew PointF,Humidity,Sea Level PressureIn,VisibilityMPH,Wind Direction,Wind SpeedMPH,Gust SpeedMPH,PrecipitationIn,Events,Conditions,WindDirDegrees,DateUTC
12:15 AM,59.0,30.2,34,30.18,10.0,South,4.6,-,N/A,,Clear,190,2012-11-30 06:15:00
12:35 AM,59.0,30.2,34,30.18,10.0,SSW,6.9,-,N/A,,Clear,200,2012-11-30 06:35:00
12:55 AM,59.0,30.2,34,30.18,10.0,South,5.8,16.1,N/A,,Clear,180,2012-11-30 06:55:00
1:15 AM,59.0,30.2,34,30.17,10.0,South,6.9,-,N/A,,Scattered Clouds,190,2012-11-30 07:15:00
1:35 AM,59.0,32.0,36,30.17,10.0,SSE,6.9,-,N/A,,Mostly Cloudy,160,2012-11-30 07:35:00
1:55 AM,59.0,32.0,36,30.17,10.0,South,5.8,18.4,N/A,,Overcast,190,2012-11-30 07:55:00
2:15 AM,57.2,32.0,38,30.17,10.0,West,3.5,-,N/A,,Overcast,270,2012-11-30 08:15:00
2:35 AM,57.2,33.8,41,30.17,10.0,Calm,Calm,-,N/A,,Overcast,0,2012-11-30 08:35:00
2:55 AM,57.2,33.8,41,30.16,10.0,Calm,Calm,-,N/A,,Overcast,0,2012-11-30 08:55:00
3:15 AM,57.2,35.6,44,30.16,10.0,North,3.5,-,N/A,,Overcast,360,2012-11-30 09:15:00
3:35 AM,59.0,35.6,42,30.16,10.0,Calm,Calm,-,N/A,,Overcast,0,2012-11-30 09:35:00
3:55 AM,57.2,37.4,48,30.17,10.0,SW,5.8,-,N/A,,Overcast,220,2012-11-30 09:55:00
4:15 AM,57.2,41.0,55,30.17,10.0,South,3.5,-,N/A,,Overcast,190,2012-11-30 10:15:00
4:35 AM,57.2,41.0,55,30.17,10.0,Calm,Calm,-,N/A,,Overcast,0,2012-11-30 10:35:00
4:55 AM,55.4,41.0,58,30.17,10.0,Calm,Calm,-,N/A,,Overcast,0,2012-11-30 10:55:00
5:15 AM,55.4,39.2,54,30.17,10.0,West,3.5,-,N/A,,Overcast,280,2012-11-30 11:15:00
5:35 AM,55.4,39.2,54,30.17,10.0,West,3.5,-,N/A,,Overcast,260,2012-11-30 11:35:00
5:55 AM,55.4,39.2,54,30.17,10.0,Calm,Calm,-,N/A,,Overcast,0,2012-11-30 11:55:00
6:15 AM,55.4,41.0,58,30.18,10.0,Calm,Calm,-,N/A,,Overcast,0,2012-11-30 12:15:00
6:35 AM,55.4,41.0,58,30.18,10.0,Calm,Calm,-,N/A,,Overcast,0,2012-11-30 12:35:00
6:55 AM,55.4,41.0,58,30.18,10.0,Calm,Calm,-,N/A,,Overcast,0,2012-11-30 12:55:00
7:15 AM,55.4,41.0,58,30.19,10.0,West,3.5,-,N/A,,Overcast,260,2012-11-30 13:15:00
7:35 AM,55.4,41.0,58,30.19,10.0,West,3.5,-,N/A,,Overcast,270,2012-11-30 13:35:00
7:55 AM,55.4,42.8,63,30.19,10.0,Calm,Calm,-,N/A,,Overcast,0,2012-11-30 13:55:00
8:15 AM,55.4,44.6,67,30.20,10.0,Calm,Calm,-,N/A,,Overcast,0,2012-11-30 14:15:00
8:35 AM,55.4,44.6,67,30.20,10.0,Calm,Calm,-,N/A,,Overcast,0,2012-11-30 14:35:00
8:55 AM,55.4,46.4,72,30.21,10.0,West,4.6,-,N/A,,Overcast,270,2012-11-30 14:55:00
9:15 AM,55.4,44.6,67,30.21,10.0,West,8.1,-,N/A,,Overcast,260,2012-11-30 15:15:00
9:35 AM,57.2,46.4,67,30.21,10.0,West,4.6,-,N/A,,Overcast,260,2012-11-30 15:35:00
9:55 AM,57.2,46.4,67,30.21,10.0,Calm,Calm,-,N/A,,Overcast,0,2012-11-30 15:55:00
10:15 AM,57.2,46.4,67,30.21,10.0,WNW,3.5,-,N/A,,Overcast,300,2012-11-30 16:15:00
10:35 AM,59.0,48.2,67,30.21,10.0,WNW,3.5,-,N/A,,Overcast,300,2012-11-30 16:35:00
10:55 AM,59.0,46.4,63,30.21,10.0,WNW,3.5,-,N/A,,Overcast,290,2012-11-30 16:55:00
11:15 AM,59.0,48.2,67,30.20,10.0,WNW,4.6,-,N/A,,Overcast,290,2012-11-30 17:15:00
11:35 AM,59.0,50.0,72,30.20,10.0,WNW,3.5,-,N/A,,Overcast,300,2012-11-30 17:35:00
11:55 AM,59.0,51.8,77,30.18,10.0,West,4.6,-,N/A,,Overcast,270,2012-11-30 17:55:00
12:15 PM,59.0,51.8,77,30.18,10.0,West,4.6,-,N/A,,Overcast,260,2012-11-30 18:15:00
12:35 PM,60.8,51.8,72,30.17,7.0,West,4.6,-,N/A,,Overcast,260,2012-11-30 18:35:00
1:15 PM,60.8,53.6,77,30.14,7.0,West,6.9,-,N/A,,Overcast,260,2012-11-30 19:15:00
1:35 PM,62.6,53.6,72,30.13,10.0,Calm,Calm,-,N/A,,Overcast,0,2012-11-30 19:35:00
1:55 PM,60.8,53.6,77,30.13,7.0,WSW,4.6,-,N/A,,Overcast,250,2012-11-30 19:55:00
2:15 PM,62.6,53.6,72,30.13,7.0,South,3.5,-,N/A,,Overcast,190,2012-11-30 20:15:00
2:35 PM,62.6,53.6,72,30.12,7.0,Calm,Calm,-,N/A,,Overcast,0,2012-11-30 20:35:00
2:55 PM,62.6,53.6,72,30.12,7.0,SSW,3.5,-,N/A,,Overcast,210,2012-11-30 20:55:00
3:15 PM,64.4,53.6,68,30.11,10.0,SSE,3.5,-,N/A,,Overcast,150,2012-11-30 21:15:00
3:35 PM,62.6,53.6,72,30.12,10.0,SSW,4.6,-,N/A,,Overcast,210,2012-11-30 21:35:00
4:15 PM,60.8,53.6,77,30.13,7.0,Calm,Calm,-,N/A,,Overcast,0,2012-11-30 22:15:00
4:35 PM,60.8,53.6,77,30.12,5.0,South,3.5,-,N/A,,Haze,170,2012-11-30 22:35:00
4:55 PM,59.0,53.6,82,30.13,5.0,Calm,Calm,-,N/A,,Haze,0,2012-11-30 22:55:00
5:15 PM,59.0,53.6,82,30.13,7.0,Calm,Calm,-,N/A,,Overcast,0,2012-11-30 23:15:00
5:35 PM,59.0,53.6,82,30.13,7.0,Calm,Calm,-,N/A,,Overcast,0,2012-11-30 23:35:00
5:55 PM,59.0,53.6,82,30.13,7.0,East,3.5,-,N/A,,Overcast,100,2012-11-30 23:55:00
6:15 PM,59.0,53.6,82,30.13,7.0,East,3.5,-,N/A,,Overcast,90,2012-12-01 00:15:00
6:35 PM,59.0,53.6,82,30.13,7.0,Calm,Calm,-,N/A,,Mostly Cloudy,0,2012-12-01 00:35:00
6:55 PM,59.0,53.6,82,30.13,7.0,Calm,Calm,-,N/A,,Mostly Cloudy,0,2012-12-01 00:55:00
7:15 PM,59.0,53.6,82,30.12,7.0,Calm,Calm,-,N/A,,Overcast,0,2012-12-01 01:15:00
7:35 PM,60.8,53.6,77,30.13,7.0,Calm,Calm,-,N/A,,Overcast,0,2012-12-01 01:35:00
7:55 PM,60.8,55.4,82,30.13,10.0,Calm,Calm,-,N/A,,Overcast,0,2012-12-01 01:55:00
8:15 PM,62.6,55.4,77,30.13,10.0,Calm,Calm,-,N/A,,Overcast,0,2012-12-01 02:15:00
8:35 PM,64.4,55.4,73,30.13,10.0,South,3.5,-,N/A,,Overcast,170,2012-12-01 02:35:00
8:55 PM,64.4,55.4,73,30.13,10.0,South,5.8,-,N/A,,Overcast,180,2012-12-01 02:55:00
9:15 PM,64.4,55.4,73,30.13,10.0,SE,5.8,-,N/A,,Overcast,140,2012-12-01 03:15:00
9:35 PM,64.4,57.2,77,30.13,10.0,South,3.5,-,N/A,,Overcast,180,2012-12-01 03:35:00
9:55 PM,64.4,57.2,77,30.13,10.0,Calm,Calm,-,N/A,,Overcast,0,2012-12-01 03:55:00
10:15 PM,64.4,55.4,73,30.13,10.0,South,5.8,-,N/A,,Overcast,170,2012-12-01 04:15:00
10:35 PM,64.4,57.2,77,30.13,10.0,SSW,4.6,-,N/A,,Overcast,200,2012-12-01 04:35:00
10:55 PM,64.4,55.4,73,30.13,10.0,South,4.6,-,N/A,,Overcast,190,2012-12-01 04:55:00
11:15 PM,64.4,55.4,73,30.13,10.0,South,8.1,-,N/A,,Mostly Cloudy,190,2012-12-01 05:15:00
11:35 PM,64.4,55.4,73,30.13,10.0,South,8.1,18.4,N/A,,Mostly Cloudy,180,2012-12-01 05:35:00
11:55 PM,64.4,55.4,73,30.12,10.0,South,5.8,-,N/A,,Mostly Cloudy,170,2012-12-01 05:55:00